createdAt,value
2019-01-23T00:00:59.454Z,32.47
2019-01-23T00:03:42.718Z,29.43
2019-01-23T00:06:25.773Z,31.50
2019-01-23T00:09:07.634Z,30.20
2019-01-23T00:11:51.322Z,29.93
2019-01-23T00:14:34.142Z,32.10
2019-01-23T00:17:17.326Z,30.87
2019-01-23T00:20:00.897Z,30.37
2019-01-23T00:22:44.334Z,30.73
2019-01-23T00:25:27.481Z,30.03
2019-01-23T00:28:11.052Z,30.73
2019-01-23T00:30:53.899Z,29.23
2019-01-23T00:33:37.453Z,30.00
2019-01-23T00:36:20.681Z,28.57
2019-01-23T00:39:04.937Z,29.67
2019-01-23T00:41:47.841Z,30.17
2019-01-23T00:44:31.034Z,31.33
2019-01-23T00:47:14.043Z,29.73
2019-01-23T00:49:57.761Z,30.47
2019-01-23T00:52:41.525Z,31.13
2019-01-23T00:55:24.620Z,30.03
2019-01-23T00:58:08.081Z,31.07
2019-01-23T01:00:51.591Z,31.27
2019-01-23T01:03:34.376Z,30.23
2019-01-23T01:06:17.349Z,32.50
2019-01-23T01:09:00.872Z,31.93
2019-01-23T01:11:43.937Z,31.43
2019-01-23T01:14:27.674Z,31.50
2019-01-23T01:17:11.106Z,33.40
2019-01-23T01:19:54.541Z,33.90
2019-01-23T01:22:37.617Z,31.63
2019-01-23T01:25:20.385Z,30.53
2019-01-23T01:27:52.780Z,30.90
2019-01-23T01:30:43.257Z,31.70
2019-01-23T01:33:26.855Z,30.60
2019-01-23T01:36:09.800Z,31.17
2019-01-23T01:38:52.877Z,30.80
2019-01-23T01:41:35.826Z,31.50
2019-01-23T01:44:18.876Z,29.27
2019-01-23T01:47:01.990Z,28.97
2019-01-23T01:49:43.740Z,30.47
2019-01-23T01:52:34.237Z,31.23
2019-01-23T01:55:17.314Z,34.07
2019-01-23T01:58:00.378Z,33.00
2019-01-23T02:00:43.493Z,31.07
2019-01-23T02:03:26.344Z,32.57
2019-01-23T02:06:09.065Z,32.57
2019-01-23T02:08:52.329Z,33.40
2019-01-23T02:11:33.968Z,33.17
2019-01-23T02:14:24.494Z,31.80
2019-01-23T02:17:07.675Z,31.87
2019-01-23T02:19:51.060Z,30.47
2019-01-23T02:22:34.048Z,29.80
2019-01-23T02:25:15.742Z,31.70
2019-01-23T02:27:58.799Z,31.00
2019-01-23T02:30:43.331Z,32.67
2019-01-23T02:33:26.662Z,32.43
2019-01-23T02:36:09.794Z,33.10
2019-01-23T02:38:53.173Z,30.80
2019-01-23T02:41:36.777Z,33.27
2019-01-23T02:44:19.797Z,32.10
2019-01-23T02:47:02.193Z,31.93
2019-01-23T02:49:43.859Z,30.93
2019-01-23T02:52:27.057Z,33.17
2019-01-23T02:55:09.989Z,33.53
2019-01-23T02:57:52.726Z,31.63
2019-01-23T03:00:35.520Z,31.87
2019-01-23T03:03:18.762Z,30.77
2019-01-23T03:06:01.783Z,32.53
2019-01-23T03:08:44.728Z,35.23
2019-01-23T03:11:27.729Z,34.93
2019-01-23T03:14:11.216Z,32.60
2019-01-23T03:16:54.246Z,32.40
2019-01-23T03:19:37.137Z,31.73
2019-01-23T03:22:20.478Z,32.60
2019-01-23T03:25:04.079Z,32.73
2019-01-23T03:27:47.132Z,31.87
2019-01-23T03:30:30.448Z,29.77
2019-01-23T03:33:13.985Z,30.43
2019-01-23T03:35:56.736Z,32.23
2019-01-23T03:38:39.832Z,29.77
2019-01-23T03:41:24.172Z,32.60
2019-01-23T03:44:07.805Z,30.47
2019-01-23T03:46:50.838Z,31.80
2019-01-23T03:49:33.998Z,31.57
2019-01-23T03:52:16.884Z,32.43
2019-01-23T03:54:59.994Z,31.23
2019-01-23T03:57:42.971Z,32.67
2019-01-23T04:00:26.495Z,33.60
2019-01-23T04:03:10.130Z,31.80
2019-01-23T04:05:53.161Z,31.23
2019-01-23T04:08:36.196Z,32.63
2019-01-23T04:11:19.255Z,31.17
2019-01-23T04:14:00.949Z,29.60
2019-01-23T04:16:44.284Z,33.10
2019-01-23T04:19:27.419Z,31.77
2019-01-23T04:22:10.166Z,31.97
2019-01-23T04:24:53.389Z,33.83
2019-01-23T04:27:34.897Z,34.10
2019-01-23T04:30:17.574Z,31.37
2019-01-23T04:33:00.702Z,30.93
2019-01-23T04:35:42.435Z,33.93
2019-01-23T04:38:25.415Z,32.60
2019-01-23T04:41:08.744Z,32.03
2019-01-23T04:43:52.306Z,33.33
2019-01-23T04:46:35.873Z,31.33
2019-01-23T04:49:19.218Z,31.47
2019-01-23T04:55:06.876Z,33.83
2019-01-23T04:57:50.259Z,32.13
2019-01-23T05:00:33.685Z,31.10
2019-01-23T05:03:16.787Z,32.73
2019-01-23T05:06:00.371Z,32.67
2019-01-23T05:08:43.422Z,33.83
2019-01-23T05:11:26.542Z,35.70
2019-01-23T05:14:09.955Z,31.97
2019-01-23T05:16:52.917Z,32.87
2019-01-23T05:19:34.430Z,32.30
2019-01-23T05:22:17.824Z,33.30
2019-01-23T05:25:01.218Z,34.50
2019-01-23T05:27:42.825Z,34.07
2019-01-23T05:30:25.800Z,35.97
2019-01-23T05:33:08.558Z,33.40
2019-01-23T05:35:51.721Z,35.40
2019-01-23T05:38:34.864Z,34.87
2019-01-23T05:41:18.475Z,34.97
2019-01-23T05:44:01.622Z,35.93
2019-01-23T05:46:44.656Z,32.83
2019-01-23T05:49:27.910Z,35.87
2019-01-23T05:52:11.478Z,34.07
2019-01-23T05:54:54.733Z,35.20
2019-01-23T05:57:37.816Z,33.80
2019-01-23T06:00:21.552Z,34.03
2019-01-23T06:03:04.257Z,33.07
2019-01-23T06:05:47.350Z,35.33
2019-01-23T06:08:30.269Z,34.63
2019-01-23T06:11:13.462Z,35.90
2019-01-23T06:13:57.034Z,34.63
2019-01-23T06:16:39.934Z,32.30
2019-01-23T06:19:22.900Z,34.37
2019-01-23T06:22:06.060Z,33.00
2019-01-23T06:24:48.841Z,36.03
2019-01-23T06:27:31.854Z,32.67
2019-01-23T06:30:15.188Z,34.00
2019-01-23T06:32:55.418Z,33.93
2019-01-23T06:35:38.501Z,35.10
2019-01-23T06:38:21.611Z,35.67
2019-01-23T06:41:03.217Z,36.80
2019-01-23T06:43:46.273Z,35.90
2019-01-23T06:46:27.828Z,36.47
2019-01-23T06:49:11.140Z,34.33
2019-01-23T06:51:54.248Z,33.63
2019-01-23T06:54:37.853Z,34.37
2019-01-23T06:57:20.965Z,35.73
2019-01-23T07:00:04.119Z,34.40
2019-01-23T07:02:46.961Z,36.87
2019-01-23T07:05:28.590Z,35.10
2019-01-23T07:08:12.587Z,35.37
2019-01-23T07:10:56.051Z,33.00
2019-01-23T07:13:38.942Z,35.60
2019-01-23T07:16:22.249Z,34.10
2019-01-23T07:19:05.886Z,36.40
2019-01-23T07:21:48.832Z,36.17
2019-01-23T07:24:30.412Z,35.37
2019-01-23T07:27:13.187Z,35.00
2019-01-23T07:29:56.118Z,33.93
2019-01-23T07:32:39.223Z,34.57
2019-01-23T07:35:22.623Z,33.70
2019-01-23T07:38:06.284Z,31.60
2019-01-23T07:40:47.809Z,32.83
2019-01-23T07:43:30.681Z,33.97
2019-01-23T07:46:13.904Z,30.20
2019-01-23T07:48:56.685Z,32.40
2019-01-23T07:51:40.186Z,32.37
2019-01-23T07:54:22.972Z,31.63
2019-01-23T07:57:04.524Z,32.50
2019-01-23T07:59:46.166Z,33.57
2019-01-23T08:02:28.997Z,35.10
2019-01-23T08:05:12.497Z,32.80
2019-01-23T08:07:55.854Z,33.67
2019-01-23T08:10:39.484Z,35.03
2019-01-23T08:13:22.745Z,32.80
2019-01-23T08:16:05.465Z,32.00
2019-01-23T08:18:48.495Z,31.50
2019-01-23T08:21:31.574Z,35.00
2019-01-23T08:24:15.140Z,34.00
2019-01-23T08:26:59.649Z,33.37
2019-01-23T08:29:43.165Z,34.73
2019-01-23T08:32:26.405Z,35.47
2019-01-23T08:35:09.893Z,34.20
2019-01-23T08:37:53.025Z,32.63
2019-01-23T08:40:36.540Z,34.03
2019-01-23T08:43:20.167Z,33.27
2019-01-23T08:46:01.735Z,34.67
2019-01-23T08:48:43.337Z,35.23
2019-01-23T08:51:26.301Z,35.40
2019-01-23T08:54:09.130Z,33.37
2019-01-23T08:56:52.058Z,34.30
2019-01-23T08:59:35.558Z,34.73
2019-01-23T09:02:18.544Z,34.13
2019-01-23T09:05:01.541Z,31.10
2019-01-23T09:07:45.157Z,31.03
2019-01-23T09:10:28.146Z,32.90
2019-01-23T09:13:11.392Z,31.07
2019-01-23T09:15:54.404Z,34.67
2019-01-23T09:18:38.086Z,33.83
2019-01-23T09:21:21.677Z,35.20
2019-01-23T09:24:04.924Z,33.20
2019-01-23T09:26:48.038Z,32.30
2019-01-23T09:29:31.565Z,33.10
2019-01-23T09:32:14.585Z,34.63
2019-01-23T09:34:58.141Z,33.67
2019-01-23T09:37:41.130Z,32.80
2019-01-23T09:40:24.477Z,32.50
2019-01-23T09:43:07.797Z,33.03
2019-01-23T09:45:51.103Z,32.93
2019-01-23T09:48:33.834Z,32.83
2019-01-23T09:51:17.820Z,34.03
2019-01-23T09:54:01.019Z,32.37
2019-01-23T09:56:44.087Z,34.50
2019-01-23T09:59:27.080Z,34.83
2019-01-23T10:02:10.118Z,35.27
2019-01-23T10:04:51.769Z,34.23
2019-01-23T10:07:42.254Z,34.73
2019-01-23T10:10:25.248Z,36.43
2019-01-23T10:13:08.810Z,33.53
2019-01-23T10:15:51.702Z,35.47
2019-01-23T10:18:35.142Z,36.53
2019-01-23T10:21:17.976Z,33.80
2019-01-23T10:23:49.414Z,35.83
2019-01-23T10:26:32.426Z,35.23
2019-01-23T10:29:15.724Z,33.30
2019-01-23T10:31:58.933Z,34.50
2019-01-23T10:34:42.036Z,33.57
2019-01-23T10:37:25.073Z,34.50
2019-01-23T10:40:07.977Z,34.47
2019-01-23T10:42:51.154Z,31.60
2019-01-23T10:45:34.197Z,35.17
2019-01-23T10:48:17.050Z,35.03
2019-01-23T10:51:00.208Z,34.70
2019-01-23T10:53:43.349Z,33.87
2019-01-23T10:56:26.421Z,34.20
2019-01-23T10:59:09.649Z,33.80
2019-01-23T11:01:53.145Z,33.87
2019-01-23T11:04:36.682Z,33.70
2019-01-23T11:07:19.521Z,33.93
2019-01-23T11:10:02.569Z,32.73
2019-01-23T11:12:46.091Z,32.30
2019-01-23T11:15:29.629Z,35.23
2019-01-23T11:18:12.741Z,33.33
2019-01-23T11:20:56.282Z,33.10
2019-01-23T11:23:39.312Z,31.63
2019-01-23T11:26:22.644Z,32.40
2019-01-23T11:29:06.302Z,31.87
2019-01-23T11:31:49.402Z,33.87
2019-01-23T11:34:32.525Z,32.67
2019-01-23T11:37:16.177Z,31.33
2019-01-23T11:39:58.867Z,31.33
2019-01-23T11:42:42.140Z,34.50
2019-01-23T11:45:25.434Z,33.00
2019-01-23T11:48:07.956Z,36.40
2019-01-23T11:50:58.438Z,34.83
2019-01-23T11:53:41.614Z,34.43
2019-01-23T11:56:24.393Z,33.33
2019-01-23T11:59:07.382Z,32.37
2019-01-23T12:01:50.261Z,34.47
2019-01-23T12:04:33.292Z,32.07
2019-01-23T12:07:16.090Z,32.37
2019-01-23T12:09:59.056Z,35.70
2019-01-23T12:12:42.054Z,32.87
2019-01-23T12:15:25.185Z,33.60
2019-01-23T12:18:08.785Z,31.37
2019-01-23T12:20:52.053Z,32.57
2019-01-23T12:23:35.405Z,32.57
2019-01-23T12:26:18.387Z,31.83
2019-01-23T12:28:59.888Z,29.77
2019-01-23T12:31:42.722Z,32.87
2019-01-23T12:34:24.210Z,33.17
2019-01-23T12:37:07.769Z,29.37
2019-01-23T12:39:50.885Z,30.13
2019-01-23T12:42:34.089Z,32.13
2019-01-23T12:45:16.914Z,32.10
2019-01-23T12:48:00.086Z,31.63
2019-01-23T12:50:43.780Z,33.60
2019-01-23T12:53:27.137Z,33.23
2019-01-23T12:56:10.469Z,33.70
2019-01-23T12:58:52.948Z,32.20
2019-01-23T13:01:43.421Z,34.00
2019-01-23T13:04:26.301Z,31.87
2019-01-23T13:07:09.601Z,32.50
2019-01-23T13:09:52.397Z,31.50
2019-01-23T13:12:35.451Z,31.23
2019-01-23T13:15:18.628Z,32.40
2019-01-23T13:18:01.929Z,33.17
2019-01-23T13:20:44.716Z,33.03
2019-01-23T13:23:28.052Z,31.83
2019-01-23T13:26:10.893Z,31.17
2019-01-23T13:28:54.408Z,30.37
2019-01-23T13:31:37.977Z,32.03
2019-01-23T13:34:21.263Z,31.47
2019-01-23T13:37:04.550Z,29.43
2019-01-23T13:39:47.965Z,29.60
2019-01-23T13:42:32.218Z,31.03
2019-01-23T13:45:15.009Z,30.33
2019-01-23T13:47:58.578Z,31.33
2019-01-23T13:50:42.219Z,30.70
2019-01-23T13:53:25.382Z,30.37
2019-01-23T13:56:08.308Z,30.70
2019-01-23T13:58:51.024Z,29.93
2019-01-23T14:01:34.196Z,30.13
2019-01-23T14:04:17.091Z,31.27
2019-01-23T14:06:59.899Z,28.50
2019-01-23T14:09:43.285Z,26.73
2019-01-23T14:12:26.878Z,25.70
2019-01-23T14:15:10.301Z,27.70
2019-01-23T14:17:53.026Z,25.43
2019-01-23T14:20:36.064Z,25.83
2019-01-23T14:23:20.743Z,24.30
2019-01-23T14:26:04.214Z,24.40
2019-01-23T14:28:47.888Z,23.77
2019-01-23T14:31:31.470Z,25.87
2019-01-23T14:34:14.706Z,24.83
2019-01-23T14:36:57.658Z,25.53
2019-01-23T14:39:41.053Z,25.40
2019-01-23T14:42:24.290Z,24.63
2019-01-23T14:45:06.672Z,24.60
2019-01-23T14:47:49.876Z,24.93
2019-01-23T14:50:32.862Z,26.90
2019-01-23T14:53:16.523Z,26.00
2019-01-23T14:56:00.017Z,25.53
2019-01-23T14:58:41.674Z,25.33
2019-01-23T15:01:13.183Z,27.07
2019-01-23T15:03:56.311Z,25.77
2019-01-23T15:06:39.918Z,25.83
2019-01-23T15:09:23.249Z,26.37
2019-01-23T15:12:04.722Z,25.77
2019-01-23T15:14:47.512Z,26.43
2019-01-23T15:17:30.858Z,27.10
2019-01-23T15:20:14.041Z,28.33
2019-01-23T15:22:55.509Z,27.80
2019-01-23T15:25:38.755Z,26.70
2019-01-23T15:28:22.225Z,27.30
2019-01-23T15:31:05.874Z,27.17
2019-01-23T15:33:37.443Z,26.60
2019-01-23T15:36:20.949Z,26.33
2019-01-23T15:39:05.100Z,27.80
2019-01-23T15:41:47.922Z,26.30
2019-01-23T15:44:31.458Z,28.20
2019-01-23T15:47:14.405Z,26.87
2019-01-23T15:49:57.374Z,27.07
2019-01-23T15:52:40.509Z,27.77
2019-01-23T15:55:23.286Z,27.00
2019-01-23T15:58:06.374Z,28.27
2019-01-23T16:00:49.097Z,28.57
2019-01-23T16:03:32.062Z,31.10
2019-01-23T16:06:15.462Z,30.13
2019-01-23T16:08:59.041Z,30.63
2019-01-23T16:11:42.022Z,31.53
2019-01-23T16:16:53.027Z,30.87
2019-01-23T16:19:36.016Z,29.53
2019-01-23T16:22:18.749Z,30.83
2019-01-23T16:25:02.255Z,29.97
2019-01-23T16:27:46.582Z,31.37
2019-01-23T16:30:29.951Z,31.37
2019-01-23T16:33:12.429Z,29.67
2019-01-23T16:35:57.048Z,31.73
2019-01-23T16:38:40.191Z,31.60
2019-01-23T16:41:23.535Z,31.57
2019-01-23T16:44:06.780Z,30.37
2019-01-23T16:46:49.862Z,31.43
2019-01-23T16:49:32.917Z,29.73
2019-01-23T16:52:16.448Z,29.17
2019-01-23T16:54:59.434Z,30.37
2019-01-23T16:57:42.539Z,30.60
2019-01-23T17:00:25.359Z,29.83
2019-01-23T17:03:09.038Z,28.60
2019-01-23T17:05:52.513Z,29.30
2019-01-23T17:08:35.688Z,28.67
2019-01-23T17:11:18.690Z,31.00
2019-01-23T17:14:01.801Z,30.90
2019-01-23T17:16:45.312Z,32.37
2019-01-23T17:19:28.157Z,31.67
2019-01-23T17:22:11.226Z,31.67
2019-01-23T17:24:54.691Z,29.93
2019-01-23T17:27:38.130Z,31.93
2019-01-23T17:30:19.882Z,32.27
2019-01-23T17:33:02.568Z,33.43
2019-01-23T17:35:44.074Z,30.97
2019-01-23T17:38:27.293Z,32.50
2019-01-23T17:41:10.466Z,32.63
2019-01-23T17:43:53.776Z,32.80
2019-01-23T17:46:37.222Z,30.57
2019-01-23T17:49:20.686Z,29.77
2019-01-23T17:52:03.608Z,33.73
2019-01-23T17:54:46.690Z,31.23
2019-01-23T17:57:29.732Z,30.90
2019-01-23T18:00:13.380Z,32.03
2019-01-23T18:02:56.249Z,30.83
2019-01-23T18:05:39.443Z,30.57
2019-01-23T18:08:22.816Z,30.60
2019-01-23T18:11:05.795Z,30.23
2019-01-23T18:13:48.937Z,31.67
2019-01-23T18:16:31.718Z,30.80
2019-01-23T18:19:15.262Z,31.03
2019-01-23T18:21:59.022Z,31.53
2019-01-23T18:24:42.415Z,31.17
2019-01-23T18:27:25.488Z,29.87
2019-01-23T18:30:08.620Z,31.47
2019-01-23T18:32:52.242Z,29.23
2019-01-23T18:35:35.393Z,28.93
2019-01-23T18:38:19.133Z,27.93
2019-01-23T18:41:02.522Z,29.73
2019-01-23T18:43:45.266Z,31.80
2019-01-23T18:46:28.953Z,30.20
2019-01-23T18:49:22.221Z,31.00
2019-01-23T18:52:05.505Z,29.97
2019-01-23T18:54:48.313Z,30.00
2019-01-23T18:57:31.745Z,30.50
2019-01-23T19:00:14.596Z,33.83
2019-01-23T19:02:57.559Z,33.20
2019-01-23T19:05:40.533Z,31.43
2019-01-23T19:08:23.570Z,31.60
2019-01-23T19:11:06.368Z,32.60
2019-01-23T19:13:49.200Z,33.60
2019-01-23T19:16:32.390Z,35.00
2019-01-23T19:19:15.557Z,33.30
2019-01-23T19:21:58.814Z,32.17
2019-01-23T19:24:41.564Z,30.03
2019-01-23T19:27:24.773Z,31.23
2019-01-23T19:30:09.366Z,29.07
2019-01-23T19:32:53.433Z,32.63
2019-01-23T19:35:35.097Z,32.27
2019-01-23T19:38:18.358Z,32.10
2019-01-23T19:41:01.341Z,27.93
2019-01-23T19:43:44.424Z,28.60
2019-01-23T19:46:27.178Z,29.83
2019-01-23T19:48:58.659Z,32.50
2019-01-23T19:51:49.154Z,29.00
2019-01-23T19:54:31.984Z,28.90
2019-01-23T19:57:15.500Z,31.13
2019-01-23T19:59:58.425Z,30.67
2019-01-23T20:02:41.402Z,30.00
2019-01-23T20:05:24.590Z,28.80
2019-01-23T20:08:07.892Z,30.67
2019-01-23T20:10:51.171Z,30.77
2019-01-23T20:13:34.556Z,31.83
2019-01-23T20:16:17.815Z,28.83
2019-01-23T20:19:01.391Z,28.73
2019-01-23T20:21:44.421Z,28.17
2019-01-23T20:24:25.954Z,29.50
2019-01-23T20:27:08.967Z,29.00
2019-01-23T20:29:52.174Z,31.03
2019-01-23T20:32:35.050Z,29.53
2019-01-23T20:35:18.057Z,31.93
2019-01-23T20:38:02.101Z,27.90
2019-01-23T20:40:45.388Z,30.30
2019-01-23T20:43:29.895Z,29.40
2019-01-23T20:46:12.946Z,29.80
2019-01-23T20:48:56.172Z,28.43
2019-01-23T20:51:39.166Z,30.90
2019-01-23T20:54:22.265Z,29.07
2019-01-23T20:57:05.227Z,28.77
2019-01-23T20:59:47.922Z,29.10
2019-01-23T21:02:31.517Z,32.13
2019-01-23T21:05:15.627Z,28.77
2019-01-23T21:07:58.327Z,28.43
2019-01-23T21:10:41.057Z,29.43
2019-01-23T21:13:24.187Z,29.40
2019-01-23T21:16:07.163Z,29.90
2019-01-23T21:18:49.896Z,31.33
2019-01-23T21:21:33.946Z,30.53
2019-01-23T21:24:16.838Z,29.17
2019-01-23T21:26:59.865Z,30.87
2019-01-23T21:29:43.274Z,31.43
2019-01-23T21:32:26.105Z,30.07
2019-01-23T21:35:10.630Z,31.13
2019-01-23T21:37:53.477Z,30.93
2019-01-23T21:40:36.901Z,30.73
2019-01-23T21:43:19.777Z,30.03
2019-01-23T21:46:01.312Z,29.13
2019-01-23T21:48:44.530Z,32.77
2019-01-23T21:51:27.418Z,34.50
2019-01-23T21:54:10.567Z,33.53
2019-01-23T21:56:53.709Z,32.57
2019-01-23T21:59:39.157Z,31.90
2019-01-23T22:02:24.254Z,30.13
2019-01-23T22:05:08.018Z,33.87
2019-01-23T22:07:50.930Z,33.80
2019-01-23T22:10:37.180Z,32.53
2019-01-23T22:13:20.772Z,33.60
2019-01-23T22:16:04.009Z,35.03
2019-01-23T22:18:46.726Z,33.30
2019-01-23T22:21:30.162Z,33.80
2019-01-23T22:24:13.148Z,34.80
2019-01-23T22:26:56.865Z,32.50
2019-01-23T22:29:39.910Z,29.43
2019-01-23T22:32:23.289Z,31.77
2019-01-23T22:35:06.556Z,33.90
2019-01-23T22:37:49.353Z,33.50
2019-01-23T22:40:32.480Z,32.70
2019-01-23T22:43:16.202Z,33.10
2019-01-23T22:45:59.586Z,33.47
2019-01-23T22:48:42.493Z,33.13
2019-01-23T22:51:26.182Z,31.67
2019-01-23T22:53:57.770Z,31.93
2019-01-23T22:56:39.288Z,35.03
2019-01-23T22:59:22.921Z,32.53
2019-01-23T23:02:06.294Z,31.73
2019-01-23T23:04:49.807Z,35.27
2019-01-23T23:07:32.997Z,33.67
2019-01-23T23:10:16.641Z,32.37
2019-01-23T23:12:48.213Z,33.13
2019-01-23T23:15:31.143Z,35.60
2019-01-23T23:18:12.662Z,32.97
2019-01-23T23:20:56.873Z,31.23
2019-01-23T23:23:40.071Z,32.53
2019-01-23T23:26:21.654Z,30.80
2019-01-23T23:29:04.410Z,33.57
2019-01-23T23:31:47.894Z,33.00
2019-01-23T23:34:31.041Z,31.60
2019-01-23T23:37:14.604Z,32.83
2019-01-23T23:39:57.993Z,31.73
2019-01-23T23:42:42.633Z,34.77
2019-01-23T23:45:25.782Z,33.27
2019-01-23T23:48:09.251Z,31.43
2019-01-23T23:50:52.178Z,34.00
2019-01-23T23:53:35.269Z,34.03
2019-01-23T23:56:19.800Z,33.73
2019-01-23T23:59:03.242Z,33.97
